IRON91 KSUU-KABQ
Flight info
| Callsign | IRON91 |
|---|---|
| Flight time | N/A |
| Altitude | 29000 |
| Route | REJOY1 AVE J6 PMD J6 EED SJN LAVAN3 |
| Aircraft | E6/H-VGDW/C |
Departure
| Time | 2026-05-04 03:58 |
|---|---|
| Airport | Travis Air Force Base (KSUU) |
Arrival
| Time | N/A |
|---|---|
| Airport | Albuquerque International Sunport (KABQ) |
| Time | Latitude | Longitude | Altitude | Speed | Heading |
|---|---|---|---|---|---|
| 2026-05-04 03:57 | 38.17162 | -121.83922 | 6481 ft | 265 kts | 103° |
| 2026-05-04 03:58 | 38.16415 | -121.79310 | 7616 ft | 268 kts | 103° |
| 2026-05-04 03:58 | 38.16029 | -121.76981 | 8218 ft | 269 kts | 103° |
| 2026-05-04 03:58 | 38.15637 | -121.74647 | 8737 ft | 274 kts | 103° |
| 2026-05-04 03:59 | 38.15237 | -121.72279 | 9342 ft | 274 kts | 103° |
| 2026-05-04 03:59 | 38.14826 | -121.69873 | 9798 ft | 280 kts | 103° |
| 2026-05-04 03:59 | 38.14413 | -121.67481 | 10344 ft | 281 kts | 103° |
| 2026-05-04 03:59 | 38.13662 | -121.65130 | 10510 ft | 296 kts | 126° |
| 2026-05-04 04:00 | 38.12142 | -121.63278 | 10678 ft | 311 kts | 146° |
| 2026-05-04 04:00 | 38.10240 | -121.61811 | 10871 ft | 326 kts | 149° |
| 2026-05-04 04:00 | 38.08238 | -121.60393 | 11052 ft | 340 kts | 150° |
| 2026-05-04 04:00 | 38.06110 | -121.58913 | 11195 ft | 354 kts | 150° |
| 2026-05-04 04:01 | 38.03916 | -121.57382 | 11507 ft | 363 kts | 150° |
| 2026-05-04 04:01 | 38.01687 | -121.55814 | 11967 ft | 367 kts | 150° |
| 2026-05-04 04:01 | 37.99471 | -121.54244 | 12391 ft | 370 kts | 150° |
| 2026-05-04 04:01 | 37.97202 | -121.52634 | 12876 ft | 373 kts | 150° |
| 2026-05-04 04:02 | 37.96457 | -121.52105 | 13026 ft | 374 kts | 150° |
| 2026-05-04 04:02 | 37.94593 | -121.50784 | 13382 ft | 377 kts | 150° |
| 2026-05-04 04:02 | 37.92286 | -121.49151 | 13772 ft | 382 kts | 150° |
| 2026-05-04 04:02 | 37.89964 | -121.47545 | 14216 ft | 382 kts | 152° |
| 2026-05-04 04:03 | 37.87563 | -121.46044 | 14682 ft | 384 kts | 154° |
| 2026-05-04 04:03 | 37.85122 | -121.44593 | 15014 ft | 389 kts | 154° |
| 2026-05-04 04:03 | 37.82676 | -121.43160 | 15415 ft | 391 kts | 154° |
| 2026-05-04 04:03 | 37.80202 | -121.41709 | 15829 ft | 393 kts | 154° |
| 2026-05-04 04:04 | 37.77701 | -121.40235 | 16165 ft | 396 kts | 154° |
| 2026-05-04 04:04 | 37.75198 | -121.38754 | 16564 ft | 398 kts | 154° |
| 2026-05-04 04:04 | 37.72712 | -121.37278 | 16950 ft | 400 kts | 154° |
| 2026-05-04 04:04 | 37.70183 | -121.35775 | 17348 ft | 401 kts | 154° |
| 2026-05-04 04:05 | 37.67635 | -121.34259 | 17744 ft | 403 kts | 154° |
| 2026-05-04 04:05 | 37.65115 | -121.32761 | 18093 ft | 406 kts | 154° |
| 2026-05-04 04:05 | 37.62536 | -121.31227 | 18414 ft | 409 kts | 154° |
| 2026-05-04 04:05 | 37.59955 | -121.29694 | 18718 ft | 411 kts | 154° |
| 2026-05-04 04:06 | 37.57376 | -121.28163 | 19035 ft | 412 kts | 154° |
| 2026-05-04 04:06 | 37.54795 | -121.26632 | 19380 ft | 413 kts | 154° |
| 2026-05-04 04:06 | 37.52190 | -121.25088 | 19699 ft | 415 kts | 154° |
| 2026-05-04 04:06 | 37.49557 | -121.23529 | 20000 ft | 417 kts | 154° |
| 2026-05-04 04:07 | 37.46924 | -121.21976 | 20329 ft | 418 kts | 155° |
| 2026-05-04 04:07 | 37.44269 | -121.20455 | 20726 ft | 417 kts | 155° |
| 2026-05-04 04:07 | 37.41630 | -121.19025 | 21112 ft | 417 kts | 157° |
| 2026-05-04 04:07 | 37.38924 | -121.17661 | 21406 ft | 419 kts | 158° |
| 2026-05-04 04:08 | 37.36156 | -121.16381 | 21602 ft | 424 kts | 160° |
| 2026-05-04 04:08 | 37.33376 | -121.15224 | 21782 ft | 428 kts | 162° |
| 2026-05-04 04:08 | 37.30493 | -121.14170 | 22028 ft | 431 kts | 164° |
| 2026-05-04 04:08 | 37.27624 | -121.13135 | 22425 ft | 428 kts | 159° |
| 2026-05-04 04:09 | 37.24884 | -121.11664 | 22743 ft | 429 kts | 154° |
| 2026-05-04 04:09 | 37.22208 | -121.09996 | 22996 ft | 431 kts | 153° |
| 2026-05-04 04:09 | 37.19512 | -121.08262 | 23211 ft | 434 kts | 152° |
| 2026-05-04 04:09 | 37.16846 | -121.06538 | 23478 ft | 435 kts | 152° |
| 2026-05-04 04:10 | 37.14163 | -121.04808 | 23684 ft | 437 kts | 153° |
| 2026-05-04 04:10 | 37.11433 | -121.03057 | 23913 ft | 439 kts | 153° |
| 2026-05-04 04:10 | 37.09622 | -121.01902 | 24045 ft | 440 kts | 153° |
| 2026-05-04 04:10 | 37.05984 | -120.99590 | 24353 ft | 441 kts | 154° |
| 2026-05-04 04:11 | 37.03234 | -120.97847 | 24582 ft | 442 kts | 154° |
| 2026-05-04 04:11 | 37.01403 | -120.96688 | 24699 ft | 444 kts | 154° |
| 2026-05-04 04:11 | 36.98632 | -120.94936 | 24861 ft | 446 kts | 154° |
| 2026-05-04 04:11 | 36.95870 | -120.93190 | 24991 ft | 450 kts | 154° |
| 2026-05-04 04:12 | 36.93063 | -120.91417 | 25096 ft | 453 kts | 155° |
| 2026-05-04 04:12 | 36.90230 | -120.89629 | 25254 ft | 456 kts | 155° |
| 2026-05-04 04:12 | 36.87412 | -120.87851 | 25440 ft | 457 kts | 155° |
| 2026-05-04 04:12 | 36.84560 | -120.86054 | 25637 ft | 458 kts | 155° |
| 2026-05-04 04:13 | 36.81726 | -120.84269 | 25810 ft | 460 kts | 155° |
| 2026-05-04 04:13 | 36.78860 | -120.82465 | 26048 ft | 459 kts | 156° |
| 2026-05-04 04:13 | 36.76036 | -120.80688 | 26309 ft | 459 kts | 156° |
| 2026-05-04 04:13 | 36.73183 | -120.78897 | 26549 ft | 459 kts | 156° |
| 2026-05-04 04:14 | 36.70347 | -120.77027 | 26756 ft | 461 kts | 154° |
| 2026-05-04 04:14 | 36.67583 | -120.74986 | 26961 ft | 462 kts | 153° |
| 2026-05-04 04:14 | 36.64840 | -120.72890 | 27185 ft | 462 kts | 153° |
| 2026-05-04 04:14 | 36.62133 | -120.70803 | 27415 ft | 462 kts | 153° |
| 2026-05-04 04:15 | 36.59400 | -120.68697 | 27626 ft | 462 kts | 154° |
| 2026-05-04 04:15 | 36.56650 | -120.66589 | 27849 ft | 463 kts | 154° |
| 2026-05-04 04:15 | 36.53898 | -120.64491 | 28012 ft | 464 kts | 155° |
| 2026-05-04 04:15 | 36.51161 | -120.62414 | 28201 ft | 464 kts | 155° |
| 2026-05-04 04:16 | 36.48400 | -120.60324 | 28431 ft | 464 kts | 156° |
| 2026-05-04 04:16 | 36.45625 | -120.58227 | 28682 ft | 464 kts | 156° |
| 2026-05-04 04:16 | 36.42888 | -120.56161 | 28939 ft | 463 kts | 156° |
| 2026-05-04 04:16 | 36.40125 | -120.54078 | 29002 ft | 464 kts | 156° |
| 2026-05-04 04:17 | 36.34578 | -120.49901 | 29013 ft | 464 kts | 157° |
| 2026-05-04 04:17 | 36.29083 | -120.45770 | 29029 ft | 464 kts | 157° |
| 2026-05-04 04:18 | 36.23573 | -120.41636 | 29021 ft | 464 kts | 157° |
| 2026-05-04 04:18 | 36.18043 | -120.37493 | 29016 ft | 464 kts | 158° |
| 2026-05-04 04:19 | 36.12514 | -120.33356 | 29018 ft | 463 kts | 158° |
| 2026-05-04 04:19 | 36.07004 | -120.29239 | 29027 ft | 462 kts | 158° |
| 2026-05-04 04:20 | 36.01484 | -120.25123 | 29015 ft | 462 kts | 158° |
| 2026-05-04 04:20 | 35.96015 | -120.21051 | 29007 ft | 461 kts | 158° |
| 2026-05-04 04:21 | 35.90525 | -120.16969 | 29033 ft | 460 kts | 158° |
| 2026-05-04 04:21 | 35.85032 | -120.12895 | 29018 ft | 461 kts | 158° |
| 2026-05-04 04:22 | 35.79530 | -120.08819 | 29017 ft | 461 kts | 158° |
| 2026-05-04 04:22 | 35.74017 | -120.04740 | 29023 ft | 462 kts | 158° |